sensor_id;sensor_type;location;lat;lon;timestamp;temperature;humidity
67182;DHT22;54114;53.524;49.396;2022-10-31T00:01:27;10.20;79.10
67182;DHT22;54114;53.524;49.396;2022-10-31T00:04:03;10.20;78.90
67182;DHT22;54114;53.524;49.396;2022-10-31T00:06:30;10.20;78.80
67182;DHT22;54114;53.524;49.396;2022-10-31T00:08:57;10.20;78.90
67182;DHT22;54114;53.524;49.396;2022-10-31T00:11:25;10.20;79.00
67182;DHT22;54114;53.524;49.396;2022-10-31T00:13:52;10.20;78.80
67182;DHT22;54114;53.524;49.396;2022-10-31T00:16:22;10.20;78.80
67182;DHT22;54114;53.524;49.396;2022-10-31T00:18:50;10.20;79.00
67182;DHT22;54114;53.524;49.396;2022-10-31T00:21:17;10.20;79.00
67182;DHT22;54114;53.524;49.396;2022-10-31T00:23:44;10.20;79.00
67182;DHT22;54114;53.524;49.396;2022-10-31T00:26:10;10.20;78.90
67182;DHT22;54114;53.524;49.396;2022-10-31T00:28:37;10.20;78.40
67182;DHT22;54114;53.524;49.396;2022-10-31T00:31:04;10.20;78.40
67182;DHT22;54114;53.524;49.396;2022-10-31T00:33:32;10.20;78.40
67182;DHT22;54114;53.524;49.396;2022-10-31T00:35:59;10.20;77.60
67182;DHT22;54114;53.524;49.396;2022-10-31T00:38:26;10.20;77.20
67182;DHT22;54114;53.524;49.396;2022-10-31T00:40:52;10.30;76.70
67182;DHT22;54114;53.524;49.396;2022-10-31T00:43:19;10.30;75.90
67182;DHT22;54114;53.524;49.396;2022-10-31T00:45:45;10.30;75.60
67182;DHT22;54114;53.524;49.396;2022-10-31T00:48:12;10.30;75.20
67182;DHT22;54114;53.524;49.396;2022-10-31T00:50:38;10.30;74.70
67182;DHT22;54114;53.524;49.396;2022-10-31T00:53:04;10.30;73.70
67182;DHT22;54114;53.524;49.396;2022-10-31T00:55:31;10.30;73.20
67182;DHT22;54114;53.524;49.396;2022-10-31T00:57:57;10.30;72.30
67182;DHT22;54114;53.524;49.396;2022-10-31T01:00:24;10.20;72.40
67182;DHT22;54114;53.524;49.396;2022-10-31T01:02:50;10.10;72.00
67182;DHT22;54114;53.524;49.396;2022-10-31T01:05:17;10.10;71.90
67182;DHT22;54114;53.524;49.396;2022-10-31T01:07:43;10.10;71.80
67182;DHT22;54114;53.524;49.396;2022-10-31T01:10:10;10.00;71.60
67182;DHT22;54114;53.524;49.396;2022-10-31T01:12:40;10.10;71.40
67182;DHT22;54114;53.524;49.396;2022-10-31T01:15:11;10.10;71.30
67182;DHT22;54114;53.524;49.396;2022-10-31T01:17:38;10.00;71.20
67182;DHT22;54114;53.524;49.396;2022-10-31T01:20:05;9.90;71.10
67182;DHT22;54114;53.524;49.396;2022-10-31T01:22:33;10.00;70.90
67182;DHT22;54114;53.524;49.396;2022-10-31T01:24:59;9.90;70.80
67182;DHT22;54114;53.524;49.396;2022-10-31T01:27:26;9.80;70.80
67182;DHT22;54114;53.524;49.396;2022-10-31T01:29:52;9.80;70.80
67182;DHT22;54114;53.524;49.396;2022-10-31T01:32:18;9.70;70.80
67182;DHT22;54114;53.524;49.396;2022-10-31T01:34:45;9.60;71.00
67182;DHT22;54114;53.524;49.396;2022-10-31T01:37:11;9.50;70.90
67182;DHT22;54114;53.524;49.396;2022-10-31T01:39:38;9.50;71.60
67182;DHT22;54114;53.524;49.396;2022-10-31T01:42:04;9.40;71.10
67182;DHT22;54114;53.524;49.396;2022-10-31T01:46:59;9.30;71.30
67182;DHT22;54114;53.524;49.396;2022-10-31T01:52:02;9.20;71.50
67182;DHT22;54114;53.524;49.396;2022-10-31T01:54:33;9.10;71.50
67182;DHT22;54114;53.524;49.396;2022-10-31T01:57:01;9.10;71.50
67182;DHT22;54114;53.524;49.396;2022-10-31T01:59:29;9.00;71.40
67182;DHT22;54114;53.524;49.396;2022-10-31T02:01:56;9.00;70.70
67182;DHT22;54114;53.524;49.396;2022-10-31T02:04:23;9.00;70.60
67182;DHT22;54114;53.524;49.396;2022-10-31T02:06:55;9.00;70.80
67182;DHT22;54114;53.524;49.396;2022-10-31T02:09:24;8.90;70.20
67182;DHT22;54114;53.524;49.396;2022-10-31T02:11:51;8.90;70.10
67182;DHT22;54114;53.524;49.396;2022-10-31T02:14:19;8.90;70.10
67182;DHT22;54114;53.524;49.396;2022-10-31T02:16:49;8.90;70.00
67182;DHT22;54114;53.524;49.396;2022-10-31T02:19:17;8.80;70.00
67182;DHT22;54114;53.524;49.396;2022-10-31T02:22:00;8.80;70.10
67182;DHT22;54114;53.524;49.396;2022-10-31T02:27:24;8.70;69.70
67182;DHT22;54114;53.524;49.396;2022-10-31T02:32:58;8.70;69.40
67182;DHT22;54114;53.524;49.396;2022-10-31T02:41:44;8.60;69.60
67182;DHT22;54114;53.524;49.396;2022-10-31T02:48:53;8.50;69.80
67182;DHT22;54114;53.524;49.396;2022-10-31T02:51:21;8.50;69.80
67182;DHT22;54114;53.524;49.396;2022-10-31T02:53:48;8.50;69.60
67182;DHT22;54114;53.524;49.396;2022-10-31T03:03:56;8.20;67.50
67182;DHT22;54114;53.524;49.396;2022-10-31T03:09:41;8.00;67.00
67182;DHT22;54114;53.524;49.396;2022-10-31T03:12:11;7.90;67.00
67182;DHT22;54114;53.524;49.396;2022-10-31T03:14:45;7.80;66.90
67182;DHT22;54114;53.524;49.396;2022-10-31T03:17:32;7.80;66.80
67182;DHT22;54114;53.524;49.396;2022-10-31T03:20:08;7.70;66.50
67182;DHT22;54114;53.524;49.396;2022-10-31T03:22:36;7.70;66.70
67182;DHT22;54114;53.524;49.396;2022-10-31T03:25:04;7.60;66.80
67182;DHT22;54114;53.524;49.396;2022-10-31T03:27:31;7.50;66.60
67182;DHT22;54114;53.524;49.396;2022-10-31T03:30:00;7.40;66.90
67182;DHT22;54114;53.524;49.396;2022-10-31T03:32:30;7.40;67.10
67182;DHT22;54114;53.524;49.396;2022-10-31T03:34:59;7.30;66.80
67182;DHT22;54114;53.524;49.396;2022-10-31T03:37:28;7.20;66.90
67182;DHT22;54114;53.524;49.396;2022-10-31T03:39:56;7.20;66.90
67182;DHT22;54114;53.524;49.396;2022-10-31T03:42:25;7.10;67.10
67182;DHT22;54114;53.524;49.396;2022-10-31T03:44:55;7.10;67.20
67182;DHT22;54114;53.524;49.396;2022-10-31T03:47:27;7.20;67.30
67182;DHT22;54114;53.524;49.396;2022-10-31T03:49:53;7.10;67.10
67182;DHT22;54114;53.524;49.396;2022-10-31T03:52:38;7.10;67.20
67182;DHT22;54114;53.524;49.396;2022-10-31T03:55:16;7.10;67.20
67182;DHT22;54114;53.524;49.396;2022-10-31T04:00:24;7.10;67.00
67182;DHT22;54114;53.524;49.396;2022-10-31T04:02:53;7.10;67.20
67182;DHT22;54114;53.524;49.396;2022-10-31T04:05:23;7.00;67.10
67182;DHT22;54114;53.524;49.396;2022-10-31T04:07:51;7.00;67.20
67182;DHT22;54114;53.524;49.396;2022-10-31T04:10:19;6.90;67.30
67182;DHT22;54114;53.524;49.396;2022-10-31T04:12:48;7.00;67.50
67182;DHT22;54114;53.524;49.396;2022-10-31T04:15:17;7.00;67.50
67182;DHT22;54114;53.524;49.396;2022-10-31T04:17:45;7.00;67.50
67182;DHT22;54114;53.524;49.396;2022-10-31T04:20:16;7.10;67.40
67182;DHT22;54114;53.524;49.396;2022-10-31T04:22:45;7.10;67.30
67182;DHT22;54114;53.524;49.396;2022-10-31T04:25:12;7.10;67.30
67182;DHT22;54114;53.524;49.396;2022-10-31T04:27:38;7.10;67.40
67182;DHT22;54114;53.524;49.396;2022-10-31T04:30:05;7.10;67.40
67182;DHT22;54114;53.524;49.396;2022-10-31T04:32:31;7.10;67.10
67182;DHT22;54114;53.524;49.396;2022-10-31T04:34:58;7.10;67.30
67182;DHT22;54114;53.524;49.396;2022-10-31T04:37:24;7.00;67.40
67182;DHT22;54114;53.524;49.396;2022-10-31T04:39:50;7.00;67.40
67182;DHT22;54114;53.524;49.396;2022-10-31T04:42:17;7.10;67.40
67182;DHT22;54114;53.524;49.396;2022-10-31T04:44:43;7.10;67.20
67182;DHT22;54114;53.524;49.396;2022-10-31T04:47:10;7.20;67.10
67182;DHT22;54114;53.524;49.396;2022-10-31T04:49:36;7.20;66.80
67182;DHT22;54114;53.524;49.396;2022-10-31T04:52:03;7.20;66.40
67182;DHT22;54114;53.524;49.396;2022-10-31T04:54:29;7.20;66.30
67182;DHT22;54114;53.524;49.396;2022-10-31T04:56:55;7.20;66.50
67182;DHT22;54114;53.524;49.396;2022-10-31T04:59:22;7.30;66.50
67182;DHT22;54114;53.524;49.396;2022-10-31T05:01:48;7.30;66.40
67182;DHT22;54114;53.524;49.396;2022-10-31T05:04:14;7.30;66.10
67182;DHT22;54114;53.524;49.396;2022-10-31T05:06:41;7.40;65.90
67182;DHT22;54114;53.524;49.396;2022-10-31T05:09:07;7.30;65.50
67182;DHT22;54114;53.524;49.396;2022-10-31T05:11:33;7.30;65.70
67182;DHT22;54114;53.524;49.396;2022-10-31T05:14:00;7.30;65.90
67182;DHT22;54114;53.524;49.396;2022-10-31T05:16:26;7.40;65.90
67182;DHT22;54114;53.524;49.396;2022-10-31T05:18:52;7.30;65.90
67182;DHT22;54114;53.524;49.396;2022-10-31T05:21:19;7.40;65.80
67182;DHT22;54114;53.524;49.396;2022-10-31T05:23:45;7.40;65.70
67182;DHT22;54114;53.524;49.396;2022-10-31T05:26:11;7.40;65.70
67182;DHT22;54114;53.524;49.396;2022-10-31T05:28:38;7.40;65.80
67182;DHT22;54114;53.524;49.396;2022-10-31T05:31:04;7.50;65.80
67182;DHT22;54114;53.524;49.396;2022-10-31T05:33:30;7.50;65.70
67182;DHT22;54114;53.524;49.396;2022-10-31T05:35:57;7.60;65.50
67182;DHT22;54114;53.524;49.396;2022-10-31T05:38:23;7.60;65.20
67182;DHT22;54114;53.524;49.396;2022-10-31T05:40:50;7.60;65.10
67182;DHT22;54114;53.524;49.396;2022-10-31T05:43:16;7.70;65.40
67182;DHT22;54114;53.524;49.396;2022-10-31T05:45:42;7.70;64.80
67182;DHT22;54114;53.524;49.396;2022-10-31T05:48:09;7.70;64.40
67182;DHT22;54114;53.524;49.396;2022-10-31T05:50:35;7.80;64.30
67182;DHT22;54114;53.524;49.396;2022-10-31T05:53:02;7.80;64.20
67182;DHT22;54114;53.524;49.396;2022-10-31T05:55:30;7.80;63.90
67182;DHT22;54114;53.524;49.396;2022-10-31T05:57:58;7.90;63.90
67182;DHT22;54114;53.524;49.396;2022-10-31T06:00:24;7.90;63.80
67182;DHT22;54114;53.524;49.396;2022-10-31T06:03:01;7.90;63.50
67182;DHT22;54114;53.524;49.396;2022-10-31T06:05:31;7.90;63.50
67182;DHT22;54114;53.524;49.396;2022-10-31T06:07:58;7.90;63.40
67182;DHT22;54114;53.524;49.396;2022-10-31T06:10:25;7.90;63.10
67182;DHT22;54114;53.524;49.396;2022-10-31T06:12:52;7.80;63.10
67182;DHT22;54114;53.524;49.396;2022-10-31T06:15:18;7.90;63.20
67182;DHT22;54114;53.524;49.396;2022-10-31T06:17:44;7.90;62.70
67182;DHT22;54114;53.524;49.396;2022-10-31T06:20:11;7.90;62.40
67182;DHT22;54114;53.524;49.396;2022-10-31T06:22:37;7.90;62.70
67182;DHT22;54114;53.524;49.396;2022-10-31T06:25:04;8.00;62.50
67182;DHT22;54114;53.524;49.396;2022-10-31T06:27:30;8.10;62.40
67182;DHT22;54114;53.524;49.396;2022-10-31T06:29:56;8.20;61.70
67182;DHT22;54114;53.524;49.396;2022-10-31T06:32:23;8.30;60.90
67182;DHT22;54114;53.524;49.396;2022-10-31T06:34:49;8.40;60.70
67182;DHT22;54114;53.524;49.396;2022-10-31T06:37:16;8.40;60.30
67182;DHT22;54114;53.524;49.396;2022-10-31T06:39:42;8.50;60.30
67182;DHT22;54114;53.524;49.396;2022-10-31T06:42:08;8.50;59.90
67182;DHT22;54114;53.524;49.396;2022-10-31T06:44:35;8.60;59.80
67182;DHT22;54114;53.524;49.396;2022-10-31T06:47:01;8.70;59.50
67182;DHT22;54114;53.524;49.396;2022-10-31T06:49:27;8.80;58.90
67182;DHT22;54114;53.524;49.396;2022-10-31T06:51:54;8.80;58.50
67182;DHT22;54114;53.524;49.396;2022-10-31T06:54:20;8.80;58.20
67182;DHT22;54114;53.524;49.396;2022-10-31T06:56:47;8.80;57.30
67182;DHT22;54114;53.524;49.396;2022-10-31T06:59:13;8.80;57.70
67182;DHT22;54114;53.524;49.396;2022-10-31T07:01:40;8.80;58.00
67182;DHT22;54114;53.524;49.396;2022-10-31T07:04:08;8.90;58.00
67182;DHT22;54114;53.524;49.396;2022-10-31T07:06:35;8.90;58.10
67182;DHT22;54114;53.524;49.396;2022-10-31T07:09:01;8.90;58.10
67182;DHT22;54114;53.524;49.396;2022-10-31T07:11:28;9.00;58.30
67182;DHT22;54114;53.524;49.396;2022-10-31T07:13:54;9.00;58.10
67182;DHT22;54114;53.524;49.396;2022-10-31T07:16:21;9.20;58.20
67182;DHT22;54114;53.524;49.396;2022-10-31T07:18:48;9.40;58.30
67182;DHT22;54114;53.524;49.396;2022-10-31T07:21:15;9.60;57.70
67182;DHT22;54114;53.524;49.396;2022-10-31T07:23:42;9.80;57.20
67182;DHT22;54114;53.524;49.396;2022-10-31T07:26:09;9.90;56.30
67182;DHT22;54114;53.524;49.396;2022-10-31T07:28:36;10.00;56.20
67182;DHT22;54114;53.524;49.396;2022-10-31T07:31:02;10.10;56.10
67182;DHT22;54114;53.524;49.396;2022-10-31T07:33:28;10.20;55.10
67182;DHT22;54114;53.524;49.396;2022-10-31T07:35:55;10.30;55.40
67182;DHT22;54114;53.524;49.396;2022-10-31T07:38:21;10.40;55.40
67182;DHT22;54114;53.524;49.396;2022-10-31T07:40:51;10.50;55.10
67182;DHT22;54114;53.524;49.396;2022-10-31T07:43:18;10.60;55.10
67182;DHT22;54114;53.524;49.396;2022-10-31T07:45:48;10.70;54.90
67182;DHT22;54114;53.524;49.396;2022-10-31T07:48:16;10.70;54.50
67182;DHT22;54114;53.524;49.396;2022-10-31T07:50:42;10.90;54.20
67182;DHT22;54114;53.524;49.396;2022-10-31T07:53:09;11.20;53.70
67182;DHT22;54114;53.524;49.396;2022-10-31T07:55:36;11.40;52.50
67182;DHT22;54114;53.524;49.396;2022-10-31T08:00:40;11.70;52.20
67182;DHT22;54114;53.524;49.396;2022-10-31T08:03:11;11.90;52.30
67182;DHT22;54114;53.524;49.396;2022-10-31T08:05:39;12.10;52.00
67182;DHT22;54114;53.524;49.396;2022-10-31T08:08:06;12.30;51.40
67182;DHT22;54114;53.524;49.396;2022-10-31T08:10:33;12.50;51.00
67182;DHT22;54114;53.524;49.396;2022-10-31T08:13:01;12.70;51.50
67182;DHT22;54114;53.524;49.396;2022-10-31T08:15:32;13.00;50.30
67182;DHT22;54114;53.524;49.396;2022-10-31T08:18:02;13.50;50.00
67182;DHT22;54114;53.524;49.396;2022-10-31T08:20:29;13.90;48.70
67182;DHT22;54114;53.524;49.396;2022-10-31T08:22:59;14.00;47.70
67182;DHT22;54114;53.524;49.396;2022-10-31T08:25:30;14.00;47.50
67182;DHT22;54114;53.524;49.396;2022-10-31T08:27:57;14.20;47.50
67182;DHT22;54114;53.524;49.396;2022-10-31T08:30:25;14.40;47.60
67182;DHT22;54114;53.524;49.396;2022-10-31T08:33:02;14.50;47.70
67182;DHT22;54114;53.524;49.396;2022-10-31T08:35:29;14.60;46.10
67182;DHT22;54114;53.524;49.396;2022-10-31T08:37:55;14.50;46.00
67182;DHT22;54114;53.524;49.396;2022-10-31T08:40:22;14.40;46.50
67182;DHT22;54114;53.524;49.396;2022-10-31T08:42:56;14.40;45.40
67182;DHT22;54114;53.524;49.396;2022-10-31T08:45:23;14.20;44.80
67182;DHT22;54114;53.524;49.396;2022-10-31T08:47:50;14.00;45.40
67182;DHT22;54114;53.524;49.396;2022-10-31T08:50:16;13.90;46.00
67182;DHT22;54114;53.524;49.396;2022-10-31T08:52:43;13.80;46.10
67182;DHT22;54114;53.524;49.396;2022-10-31T08:55:09;13.80;46.10
67182;DHT22;54114;53.524;49.396;2022-10-31T08:57:36;13.80;46.40
67182;DHT22;54114;53.524;49.396;2022-10-31T09:00:02;13.90;45.70
67182;DHT22;54114;53.524;49.396;2022-10-31T09:02:29;13.70;45.00
67182;DHT22;54114;53.524;49.396;2022-10-31T09:04:56;13.50;45.50
67182;DHT22;54114;53.524;49.396;2022-10-31T09:07:22;13.30;45.60
67182;DHT22;54114;53.524;49.396;2022-10-31T09:09:49;13.30;45.50
67182;DHT22;54114;53.524;49.396;2022-10-31T09:12:15;13.00;44.90
67182;DHT22;54114;53.524;49.396;2022-10-31T09:14:41;12.80;44.80
67182;DHT22;54114;53.524;49.396;2022-10-31T09:17:08;12.70;44.80
67182;DHT22;54114;53.524;49.396;2022-10-31T09:19:34;12.60;45.00
67182;DHT22;54114;53.524;49.396;2022-10-31T09:22:02;12.60;45.10
67182;DHT22;54114;53.524;49.396;2022-10-31T09:24:28;12.60;45.10
67182;DHT22;54114;53.524;49.396;2022-10-31T09:26:55;12.60;45.20
67182;DHT22;54114;53.524;49.396;2022-10-31T09:29:21;12.60;45.40
67182;DHT22;54114;53.524;49.396;2022-10-31T09:31:48;12.60;44.60
67182;DHT22;54114;53.524;49.396;2022-10-31T09:34:14;12.50;44.50
67182;DHT22;54114;53.524;49.396;2022-10-31T09:36:40;12.30;45.10
67182;DHT22;54114;53.524;49.396;2022-10-31T09:39:08;12.10;44.90
67182;DHT22;54114;53.524;49.396;2022-10-31T09:47:13;11.70;45.10
67182;DHT22;54114;53.524;49.396;2022-10-31T09:49:55;11.70;45.10
67182;DHT22;54114;53.524;49.396;2022-10-31T09:52:24;11.70;44.90
67182;DHT22;54114;53.524;49.396;2022-10-31T09:54:58;11.60;43.50
67182;DHT22;54114;53.524;49.396;2022-10-31T09:57:45;11.50;42.80
67182;DHT22;54114;53.524;49.396;2022-10-31T10:00:19;11.50;42.80
67182;DHT22;54114;53.524;49.396;2022-10-31T10:02:47;11.40;42.60
67182;DHT22;54114;53.524;49.396;2022-10-31T10:05:30;11.30;42.50
67182;DHT22;54114;53.524;49.396;2022-10-31T10:08:11;11.30;42.80
67182;DHT22;54114;53.524;49.396;2022-10-31T10:13:35;11.30;43.20
67182;DHT22;54114;53.524;49.396;2022-10-31T10:16:16;11.30;43.30
67182;DHT22;54114;53.524;49.396;2022-10-31T10:22:02;11.50;43.30
67182;DHT22;54114;53.524;49.396;2022-10-31T10:24:53;11.40;42.60
67182;DHT22;54114;53.524;49.396;2022-10-31T10:35:45;11.30;43.00
67182;DHT22;54114;53.524;49.396;2022-10-31T10:38:20;11.30;43.30
67182;DHT22;54114;53.524;49.396;2022-10-31T10:40:58;11.20;43.10
67182;DHT22;54114;53.524;49.396;2022-10-31T10:43:32;11.00;43.10
67182;DHT22;54114;53.524;49.396;2022-10-31T10:48:58;10.90;43.40
67182;DHT22;54114;53.524;49.396;2022-10-31T10:51:33;10.90;43.60
67182;DHT22;54114;53.524;49.396;2022-10-31T10:54:28;10.90;43.60
67182;DHT22;54114;53.524;49.396;2022-10-31T10:57:11;10.80;43.50
67182;DHT22;54114;53.524;49.396;2022-10-31T10:59:43;10.70;43.60
67182;DHT22;54114;53.524;49.396;2022-10-31T11:02:17;10.70;43.40
67182;DHT22;54114;53.524;49.396;2022-10-31T11:04:45;10.70;43.60
67182;DHT22;54114;53.524;49.396;2022-10-31T11:07:13;10.70;43.30
67182;DHT22;54114;53.524;49.396;2022-10-31T11:09:39;10.70;43.40
67182;DHT22;54114;53.524;49.396;2022-10-31T11:12:17;10.70;43.20
67182;DHT22;54114;53.524;49.396;2022-10-31T11:14:54;10.70;43.10
67182;DHT22;54114;53.524;49.396;2022-10-31T11:20:00;10.70;43.40
67182;DHT22;54114;53.524;49.396;2022-10-31T11:22:28;10.70;43.40
67182;DHT22;54114;53.524;49.396;2022-10-31T11:24:55;10.70;43.50
67182;DHT22;54114;53.524;49.396;2022-10-31T11:27:22;10.70;43.50
67182;DHT22;54114;53.524;49.396;2022-10-31T11:29:50;10.80;43.60
67182;DHT22;54114;53.524;49.396;2022-10-31T11:32:23;10.90;43.50
67182;DHT22;54114;53.524;49.396;2022-10-31T11:34:54;11.00;43.60
67182;DHT22;54114;53.524;49.396;2022-10-31T11:37:26;11.10;43.40
67182;DHT22;54114;53.524;49.396;2022-10-31T11:39:54;11.20;43.50
67182;DHT22;54114;53.524;49.396;2022-10-31T11:42:27;11.30;42.80
67182;DHT22;54114;53.524;49.396;2022-10-31T11:44:54;11.30;42.70
67182;DHT22;54114;53.524;49.396;2022-10-31T11:47:26;11.30;42.80
67182;DHT22;54114;53.524;49.396;2022-10-31T11:49:54;11.40;42.60
67182;DHT22;54114;53.524;49.396;2022-10-31T11:52:25;11.30;42.50
67182;DHT22;54114;53.524;49.396;2022-10-31T11:57:48;11.20;42.60
67182;DHT22;54114;53.524;49.396;2022-10-31T12:00:26;11.20;42.70
67182;DHT22;54114;53.524;49.396;2022-10-31T12:08:19;10.80;42.70
67182;DHT22;54114;53.524;49.396;2022-10-31T12:13:38;10.70;43.40
67182;DHT22;54114;53.524;49.396;2022-10-31T12:19:46;10.60;43.40
67182;DHT22;54114;53.524;49.396;2022-10-31T12:25:37;10.50;44.00
67182;DHT22;54114;53.524;49.396;2022-10-31T12:31:05;10.40;44.30
67182;DHT22;54114;53.524;49.396;2022-10-31T12:39:06;10.10;44.50
67182;DHT22;54114;53.524;49.396;2022-10-31T12:57:48;9.50;45.50
67182;DHT22;54114;53.524;49.396;2022-10-31T13:00:19;9.50;45.60
67182;DHT22;54114;53.524;49.396;2022-10-31T13:05:19;9.40;46.00
67182;DHT22;54114;53.524;49.396;2022-10-31T13:08:01;9.30;46.20
67182;DHT22;54114;53.524;49.396;2022-10-31T13:13:05;9.40;46.40
67182;DHT22;54114;53.524;49.396;2022-10-31T13:15:46;9.40;46.60
67182;DHT22;54114;53.524;49.396;2022-10-31T13:18:19;9.40;46.60
67182;DHT22;54114;53.524;49.396;2022-10-31T13:20:58;9.30;46.60
67182;DHT22;54114;53.524;49.396;2022-10-31T13:23:31;9.30;46.70
67182;DHT22;54114;53.524;49.396;2022-10-31T13:25:59;9.20;46.80
67182;DHT22;54114;53.524;49.396;2022-10-31T13:29:17;9.10;46.90
67182;DHT22;54114;53.524;49.396;2022-10-31T13:31:20;9.10;47.00
67182;DHT22;54114;53.524;49.396;2022-10-31T13:33:52;9.00;47.20
67182;DHT22;54114;53.524;49.396;2022-10-31T13:44:42;8.90;48.00
67182;DHT22;54114;53.524;49.396;2022-10-31T13:47:26;8.90;48.00
67182;DHT22;54114;53.524;49.396;2022-10-31T13:50:06;8.90;48.00
67182;DHT22;54114;53.524;49.396;2022-10-31T13:52:45;8.80;47.90
67182;DHT22;54114;53.524;49.396;2022-10-31T13:58:03;8.70;48.40
67182;DHT22;54114;53.524;49.396;2022-10-31T14:00:30;8.70;48.40
67182;DHT22;54114;53.524;49.396;2022-10-31T14:03:01;8.70;48.50
67182;DHT22;54114;53.524;49.396;2022-10-31T14:05:29;8.60;48.70
67182;DHT22;54114;53.524;49.396;2022-10-31T14:08:00;8.60;48.80
67182;DHT22;54114;53.524;49.396;2022-10-31T14:10:37;8.60;48.90
67182;DHT22;54114;53.524;49.396;2022-10-31T14:13:05;8.60;49.00
67182;DHT22;54114;53.524;49.396;2022-10-31T14:15:34;8.50;49.10
67182;DHT22;54114;53.524;49.396;2022-10-31T14:18:02;8.50;49.30
67182;DHT22;54114;53.524;49.396;2022-10-31T14:26:06;8.40;49.70
67182;DHT22;54114;53.524;49.396;2022-10-31T14:28:48;8.40;49.70
67182;DHT22;54114;53.524;49.396;2022-10-31T14:36:59;8.50;49.80
67182;DHT22;54114;53.524;49.396;2022-10-31T14:39:32;8.40;49.70
67182;DHT22;54114;53.524;49.396;2022-10-31T14:50:23;8.30;49.90
67182;DHT22;54114;53.524;49.396;2022-10-31T14:53:45;8.30;50.00
67182;DHT22;54114;53.524;49.396;2022-10-31T14:56:12;8.30;49.90
67182;DHT22;54114;53.524;49.396;2022-10-31T14:59:12;8.30;49.90
67182;DHT22;54114;53.524;49.396;2022-10-31T15:01:47;8.20;49.80
67182;DHT22;54114;53.524;49.396;2022-10-31T15:04:25;8.20;50.00
67182;DHT22;54114;53.524;49.396;2022-10-31T15:07:05;8.10;50.00
67182;DHT22;54114;53.524;49.396;2022-10-31T15:09:33;8.10;50.00
67182;DHT22;54114;53.524;49.396;2022-10-31T15:12:01;8.10;50.10
67182;DHT22;54114;53.524;49.396;2022-10-31T15:14:43;8.00;50.00
67182;DHT22;54114;53.524;49.396;2022-10-31T15:17:09;8.00;50.00
67182;DHT22;54114;53.524;49.396;2022-10-31T15:19:37;8.00;50.00
67182;DHT22;54114;53.524;49.396;2022-10-31T15:22:03;8.00;50.10
67182;DHT22;54114;53.524;49.396;2022-10-31T15:24:32;8.00;50.20
67182;DHT22;54114;53.524;49.396;2022-10-31T15:27:00;8.00;50.20
67182;DHT22;54114;53.524;49.396;2022-10-31T15:29:27;8.00;50.30
67182;DHT22;54114;53.524;49.396;2022-10-31T15:31:55;8.10;50.40
67182;DHT22;54114;53.524;49.396;2022-10-31T15:34:39;8.10;50.30
67182;DHT22;54114;53.524;49.396;2022-10-31T15:37:13;8.10;50.20
67182;DHT22;54114;53.524;49.396;2022-10-31T15:39:41;8.20;50.30
67182;DHT22;54114;53.524;49.396;2022-10-31T15:44:47;8.10;50.10
67182;DHT22;54114;53.524;49.396;2022-10-31T15:47:16;8.10;50.00
67182;DHT22;54114;53.524;49.396;2022-10-31T15:54:57;8.10;50.10
67182;DHT22;54114;53.524;49.396;2022-10-31T15:57:26;8.00;50.10
67182;DHT22;54114;53.524;49.396;2022-10-31T15:59:52;8.10;50.20
67182;DHT22;54114;53.524;49.396;2022-10-31T16:02:21;8.10;50.10
67182;DHT22;54114;53.524;49.396;2022-10-31T16:07:24;8.10;50.20
67182;DHT22;54114;53.524;49.396;2022-10-31T16:09:52;8.10;50.20
67182;DHT22;54114;53.524;49.396;2022-10-31T16:12:23;8.10;50.20
67182;DHT22;54114;53.524;49.396;2022-10-31T16:14:51;8.10;50.10
67182;DHT22;54114;53.524;49.396;2022-10-31T16:17:20;8.10;50.10
67182;DHT22;54114;53.524;49.396;2022-10-31T16:19:49;8.10;50.10
67182;DHT22;54114;53.524;49.396;2022-10-31T16:22:20;8.00;50.00
67182;DHT22;54114;53.524;49.396;2022-10-31T16:24:53;8.00;50.00
67182;DHT22;54114;53.524;49.396;2022-10-31T16:27:32;7.90;50.00
67182;DHT22;54114;53.524;49.396;2022-10-31T16:30:00;7.90;50.10
67182;DHT22;54114;53.524;49.396;2022-10-31T16:32:33;7.90;50.20
67182;DHT22;54114;53.524;49.396;2022-10-31T16:35:16;7.80;50.20
67182;DHT22;54114;53.524;49.396;2022-10-31T16:37:44;7.70;50.30
67182;DHT22;54114;53.524;49.396;2022-10-31T16:40:11;7.70;50.50
67182;DHT22;54114;53.524;49.396;2022-10-31T16:42:41;7.70;50.50
67182;DHT22;54114;53.524;49.396;2022-10-31T16:45:13;7.70;50.60
67182;DHT22;54114;53.524;49.396;2022-10-31T16:47:42;7.70;50.70
67182;DHT22;54114;53.524;49.396;2022-10-31T16:50:12;7.70;50.80
67182;DHT22;54114;53.524;49.396;2022-10-31T16:52:49;7.70;50.80
67182;DHT22;54114;53.524;49.396;2022-10-31T16:55:16;7.70;50.80
67182;DHT22;54114;53.524;49.396;2022-10-31T16:57:54;7.70;50.80
67182;DHT22;54114;53.524;49.396;2022-10-31T17:00:22;7.70;50.90
67182;DHT22;54114;53.524;49.396;2022-10-31T17:02:50;7.60;51.00
67182;DHT22;54114;53.524;49.396;2022-10-31T17:05:18;7.60;51.10
67182;DHT22;54114;53.524;49.396;2022-10-31T17:07:46;7.60;51.20
67182;DHT22;54114;53.524;49.396;2022-10-31T17:10:13;7.60;51.20
67182;DHT22;54114;53.524;49.396;2022-10-31T17:12:42;7.60;51.20
67182;DHT22;54114;53.524;49.396;2022-10-31T17:15:33;7.60;51.20
67182;DHT22;54114;53.524;49.396;2022-10-31T17:18:09;7.60;51.20
67182;DHT22;54114;53.524;49.396;2022-10-31T17:20:37;7.60;51.30
67182;DHT22;54114;53.524;49.396;2022-10-31T17:23:04;7.50;51.30
67182;DHT22;54114;53.524;49.396;2022-10-31T17:25:30;7.40;51.60
67182;DHT22;54114;53.524;49.396;2022-10-31T17:27:57;7.50;51.70
67182;DHT22;54114;53.524;49.396;2022-10-31T17:30:24;7.50;51.70
67182;DHT22;54114;53.524;49.396;2022-10-31T17:32:50;7.50;51.70
67182;DHT22;54114;53.524;49.396;2022-10-31T17:35:17;7.50;51.70
67182;DHT22;54114;53.524;49.396;2022-10-31T17:37:44;7.50;51.90
67182;DHT22;54114;53.524;49.396;2022-10-31T17:40:12;7.40;51.80
67182;DHT22;54114;53.524;49.396;2022-10-31T17:42:39;7.40;51.90
67182;DHT22;54114;53.524;49.396;2022-10-31T17:45:06;7.50;52.00
67182;DHT22;54114;53.524;49.396;2022-10-31T17:47:34;7.50;52.00
67182;DHT22;54114;53.524;49.396;2022-10-31T17:50:00;7.50;52.00
67182;DHT22;54114;53.524;49.396;2022-10-31T17:52:28;7.50;51.90
67182;DHT22;54114;53.524;49.396;2022-10-31T17:54:54;7.60;51.90
67182;DHT22;54114;53.524;49.396;2022-10-31T17:57:20;7.60;51.90
67182;DHT22;54114;53.524;49.396;2022-10-31T17:59:47;7.60;51.90
67182;DHT22;54114;53.524;49.396;2022-10-31T18:02:13;7.60;51.90
67182;DHT22;54114;53.524;49.396;2022-10-31T18:04:40;7.50;51.90
67182;DHT22;54114;53.524;49.396;2022-10-31T18:07:06;7.50;51.90
67182;DHT22;54114;53.524;49.396;2022-10-31T18:09:33;7.50;52.00
67182;DHT22;54114;53.524;49.396;2022-10-31T18:11:59;7.50;52.10